Postoak, Texas
Current Conditions -  °F | °C
As of 4:35 AM on Saturday 22 Nov 2014 (Local Time) from K0F2 Reporting Station
Moderate Rain Moderate Rain  
Wind Chill: 58°   Ceiling: 1600
Heat Index: 58°   Visibility: 10mi
Dew Point: 57°   Wind: 6mph
Humidity: 94%   Direction: 120°ESE
Pressure: 30.01"   Gusts: NA
Location:  33.5529°N, 97.8448°W
Report Text: K0F2 221035Z AUTO 12005KT 10SM RA OVC016 15/14 A3001 RMK AO2 LTG DSNT ALQS T01460137
Loading
Personal Weather Stations






























Interactive Weather Map New forecast layout! Learn more

10-Day Weather Forecast

Advertisements
Track Severe Weather on mobile